Time;durP1;ratioP1;P1;durP2;ratioP2;P2;SDS_P1;SDS_P2;PMS_P1;PMS_P2;Temp;Humidity;BMP_temperature;BMP_pressure;BME280_temperature;BME280_humidity;BME280_pressure;Samples;Min_cycle;Max_cycle;Signal;HPM_P1;HPM_P2
2023/07/16 00:02:04;;;;;;;1.70;0.88;;;20.70;77.00;;;;;;5074245;28;20028;-73
2023/07/16 00:04:31;;;;;;;0.93;0.70;;;20.50;78.40;;;;;;5072871;28;20032;-72
2023/07/16 00:06:56;;;;;;;1.30;1.00;;;20.30;78.40;;;;;;5074332;28;20109;-72
2023/07/16 00:09:22;;;;;;;0.85;0.60;;;20.30;78.70;;;;;;5074088;28;20063;-72
2023/07/16 00:11:47;;;;;;;1.70;0.60;;;20.30;79.20;;;;;;5074196;28;20021;-72
2023/07/16 00:14:13;;;;;;;1.30;0.80;;;20.30;79.20;;;;;;5073926;28;20399;-72
2023/07/16 00:16:39;;;;;;;0.77;0.73;;;20.20;79.10;;;;;;5073913;28;20453;-72
2023/07/16 00:19:04;;;;;;;1.80;0.80;;;20.20;79.70;;;;;;5074242;28;20066;-72
2023/07/16 00:21:30;;;;;;;1.45;0.95;;;20.20;80.40;;;;;;5072530;28;20074;-73
2023/07/16 00:23:55;;;;;;;3.10;1.13;;;20.20;81.60;;;;;;5073957;28;20412;-72
2023/07/16 00:26:21;;;;;;;1.48;1.10;;;20.20;81.30;;;;;;5074295;28;20426;-72
2023/07/16 00:28:47;;;;;;;2.97;0.77;;;20.20;80.30;;;;;;5072619;28;20016;-71
2023/07/16 00:31:12;;;;;;;0.80;0.80;;;20.10;81.10;;;;;;5073642;28;20043;-73
2023/07/16 00:33:38;;;;;;;1.13;0.75;;;19.90;78.80;;;;;;5072541;28;20024;-72
2023/07/16 00:36:04;;;;;;;2.28;0.80;;;19.90;78.40;;;;;;5073897;28;20063;-73
2023/07/16 00:38:30;;;;;;;1.83;1.08;;;19.80;77.60;;;;;;5074010;28;20708;-72
2023/07/16 00:40:56;;;;;;;1.17;0.88;;;19.70;75.70;;;;;;5074237;28;20016;-72
2023/07/16 00:43:21;;;;;;;1.77;0.75;;;19.70;76.00;;;;;;5074020;28;20491;-73
2023/07/16 00:45:47;;;;;;;1.15;1.00;;;19.60;77.10;;;;;;5073979;28;20029;-72
2023/07/16 00:48:13;;;;;;;1.20;1.10;;;19.60;76.80;;;;;;5073967;28;20024;-72
2023/07/16 00:50:41;;;;;;;0.52;0.52;;;19.70;76.70;;;;;;5072526;28;20036;-72
2023/07/16 00:53:08;;;;;;;1.23;0.70;;;19.90;75.50;;;;;;5073811;28;20024;-72
2023/07/16 00:55:35;;;;;;;1.20;0.90;;;20.00;75.80;;;;;;5073828;28;20109;-71
2023/07/16 00:58:05;;;;;;;1.50;0.95;;;20.10;76.30;;;;;;5073720;28;20170;-71
2023/07/16 01:00:32;;;;;;;1.75;1.20;;;20.40;77.60;;;;;;5073680;28;20025;-71
2023/07/16 01:02:58;;;;;;;1.83;1.05;;;20.60;77.00;;;;;;5073637;28;20468;-71
2023/07/16 01:05:27;;;;;;;1.58;0.90;;;20.70;77.50;;;;;;5073864;28;20040;-71
2023/07/16 01:08:01;;;;;;;1.50;1.05;;;20.70;77.50;;;;;;5072464;28;20071;-73
2023/07/16 01:10:28;;;;;;;3.40;1.10;;;20.70;77.40;;;;;;5072611;28;20074;-73
2023/07/16 01:12:55;;;;;;;0.82;0.80;;;20.70;77.50;;;;;;5072617;28;20103;-73
2023/07/16 01:15:21;;;;;;;2.88;1.02;;;20.70;77.70;;;;;;5072065;28;20135;-73
2023/07/16 01:17:47;;;;;;;1.08;0.77;;;20.60;78.20;;;;;;5072042;28;20035;-73
2023/07/16 01:20:12;;;;;;;1.45;0.90;;;20.60;78.20;;;;;;5072074;28;20127;-73
2023/07/16 01:22:48;;;;;;;2.20;0.93;;;20.60;78.00;;;;;;5072156;28;20362;-72
2023/07/16 01:25:23;;;;;;;0.90;0.90;;;20.60;77.70;;;;;;5072154;28;20373;-73
2023/07/16 01:28:04;;;;;;;0.88;0.80;;;20.50;77.70;;;;;;5071989;28;20107;-72
2023/07/16 01:30:31;;;;;;;1.70;1.15;;;20.50;77.90;;;;;;5072972;28;20037;-72
2023/07/16 01:32:57;;;;;;;1.10;1.00;;;20.40;77.90;;;;;;5072481;28;20052;-73
2023/07/16 01:35:23;;;;;;;2.47;0.95;;;20.50;78.20;;;;;;5072875;28;20028;-73
2023/07/16 01:37:49;;;;;;;4.15;0.85;;;20.40;78.70;;;;;;5073177;28;20081;-72
2023/07/16 01:40:14;;;;;;;2.15;1.10;;;20.40;78.60;;;;;;5073104;28;20024;-74
2023/07/16 01:42:40;;;;;;;0.82;0.80;;;20.40;78.80;;;;;;5072857;28;20028;-73
2023/07/16 01:45:06;;;;;;;1.00;0.88;;;20.30;78.70;;;;;;5073020;28;20028;-72
2023/07/16 01:47:56;;;;;;;2.95;0.80;;;20.30;77.70;;;;;;5072978;28;20056;-72
2023/07/16 01:50:21;;;;;;;1.45;0.90;;;20.30;77.50;;;;;;5072305;28;20495;-72
2023/07/16 01:52:47;;;;;;;1.67;1.20;;;20.30;77.70;;;;;;5072950;28;20032;-72
2023/07/16 01:55:12;;;;;;;1.48;0.80;;;20.30;78.20;;;;;;5072723;28;20036;-73
2023/07/16 01:57:38;;;;;;;3.17;1.05;;;20.30;78.40;;;;;;5073307;28;20020;-72
2023/07/16 02:00:04;;;;;;;0.90;0.90;;;20.30;78.40;;;;;;5072823;28;20025;-72
2023/07/16 02:02:30;;;;;;;2.50;1.10;;;20.30;78.50;;;;;;5072849;28;20573;-72
2023/07/16 02:04:55;;;;;;;1.20;0.98;;;20.30;78.40;;;;;;5072824;28;20025;-72
2023/07/16 02:07:21;;;;;;;1.52;1.10;;;20.30;78.20;;;;;;5072730;28;20029;-72
2023/07/16 02:09:46;;;;;;;4.20;1.30;;;20.30;78.60;;;;;;5072815;28;20025;-72
2023/07/16 02:12:12;;;;;;;5.90;1.30;;;20.20;77.30;;;;;;5072806;28;20036;-72
2023/07/16 02:14:37;;;;;;;1.17;1.00;;;20.10;78.50;;;;;;5072656;28;20467;-74
2023/07/16 02:17:03;;;;;;;2.78;1.10;;;20.10;78.80;;;;;;5072714;28;20025;-72
2023/07/16 02:19:28;;;;;;;2.08;1.25;;;20.10;78.90;;;;;;5071362;28;20127;-72
2023/07/16 02:21:54;;;;;;;1.98;1.10;;;20.10;78.20;;;;;;5072484;28;20051;-72
2023/07/16 02:24:20;;;;;;;1.40;1.08;;;20.00;78.30;;;;;;5072677;28;20419;-72
2023/07/16 02:26:45;;;;;;;1.23;1.13;;;20.00;78.10;;;;;;5072517;28;20052;-72
2023/07/16 02:29:11;;;;;;;3.13;1.20;;;20.00;77.90;;;;;;5072616;28;20024;-72
2023/07/16 02:31:37;;;;;;;1.67;0.95;;;20.00;78.30;;;;;;5072597;28;20055;-73
2023/07/16 02:34:02;;;;;;;2.50;1.08;;;20.00;78.10;;;;;;5072465;28;20027;-72
2023/07/16 02:36:28;;;;;;;1.63;1.30;;;19.90;78.80;;;;;;5072529;28;20024;-73
2023/07/16 02:38:53;;;;;;;0.95;0.90;;;19.90;78.00;;;;;;5072582;28;20148;-71
2023/07/16 02:41:19;;;;;;;1.42;1.02;;;20.00;77.90;;;;;;5072405;28;20028;-71
2023/07/16 02:43:46;;;;;;;1.52;1.30;;;20.00;77.90;;;;;;5072517;28;20032;-73
2023/07/16 02:46:12;;;;;;;3.20;1.20;;;20.00;78.00;;;;;;5072814;28;20464;-74
2023/07/16 02:48:37;;;;;;;1.13;1.10;;;20.00;78.20;;;;;;5072462;28;20100;-73
2023/07/16 02:51:03;;;;;;;1.02;0.90;;;20.00;77.40;;;;;;5072403;28;20027;-73
2023/07/16 02:53:28;;;;;;;3.42;1.23;;;20.00;77.60;;;;;;5070992;28;20074;-73
2023/07/16 02:55:54;;;;;;;1.60;1.05;;;19.90;77.90;;;;;;5072235;28;20021;-72
2023/07/16 02:58:19;;;;;;;4.18;1.50;;;19.70;78.30;;;;;;5072359;28;20101;-73
2023/07/16 03:00:45;;;;;;;2.25;1.20;;;19.70;78.80;;;;;;5074008;28;20094;-74
2023/07/16 03:03:11;;;;;;;2.28;1.40;;;19.60;78.60;;;;;;5075842;28;20029;-73
2023/07/16 03:05:36;;;;;;;1.95;1.30;;;19.60;78.80;;;;;;5076017;28;20070;-72
2023/07/16 03:08:02;;;;;;;3.03;1.13;;;19.50;79.00;;;;;;5075807;28;20130;-71
2023/07/16 03:10:28;;;;;;;3.10;1.15;;;19.50;79.20;;;;;;5075736;28;20546;-71
2023/07/16 03:12:54;;;;;;;1.30;1.20;;;19.50;79.40;;;;;;5075724;28;20024;-71
2023/07/16 03:15:19;;;;;;;3.13;1.33;;;19.60;79.30;;;;;;5075593;28;20085;-72
2023/07/16 03:17:45;;;;;;;1.65;1.02;;;19.60;78.90;;;;;;5075525;28;20024;-72
2023/07/16 03:20:11;;;;;;;3.28;1.30;;;19.70;78.20;;;;;;5075465;28;20036;-73
2023/07/16 03:22:36;;;;;;;1.40;1.27;;;19.60;77.60;;;;;;5075592;28;20028;-72
2023/07/16 03:25:02;;;;;;;3.53;1.27;;;19.70;77.60;;;;;;5075431;28;20028;-73
2023/07/16 03:27:28;;;;;;;1.70;1.20;;;19.60;78.60;;;;;;5074152;28;20020;-73
2023/07/16 03:29:54;;;;;;;3.15;1.23;;;19.60;77.90;;;;;;5075499;28;20021;-73
2023/07/16 03:32:20;;;;;;;3.60;1.00;;;19.60;77.70;;;;;;5075409;28;20449;-74
2023/07/16 03:34:45;;;;;;;2.40;1.27;;;19.60;78.10;;;;;;5075227;28;20040;-72
2023/07/16 03:37:11;;;;;;;2.25;1.02;;;19.60;77.90;;;;;;5075306;28;20036;-73
2023/07/16 03:39:36;;;;;;;4.47;1.55;;;19.60;77.50;;;;;;5075054;28;20032;-74
2023/07/16 03:42:02;;;;;;;2.50;1.20;;;19.60;77.50;;;;;;5075141;28;20445;-72
2023/07/16 03:44:29;;;;;;;1.13;0.93;;;19.60;77.40;;;;;;5075162;28;20028;-72
2023/07/16 03:46:54;;;;;;;1.02;1.02;;;19.60;77.60;;;;;;5075144;28;20017;-73
2023/07/16 03:49:20;;;;;;;1.50;1.00;;;19.50;77.60;;;;;;5075079;28;20097;-72
2023/07/16 03:51:45;;;;;;;2.50;1.10;;;19.60;77.80;;;;;;5073631;28;20382;-72
2023/07/16 03:54:11;;;;;;;3.45;1.35;;;19.50;78.20;;;;;;5074813;28;20107;-71
2023/07/16 03:56:36;;;;;;;1.75;1.20;;;19.50;78.40;;;;;;5075034;28;20059;-71
2023/07/16 03:59:02;;;;;;;2.28;1.50;;;19.50;77.80;;;;;;5074991;28;20021;-72
2023/07/16 04:01:27;;;;;;;2.72;1.50;;;19.30;77.30;;;;;;5074783;28;20107;-72
2023/07/16 04:03:53;;;;;;;1.30;1.20;;;19.10;77.80;;;;;;5074807;28;20381;-71
2023/07/16 04:06:18;;;;;;;1.35;1.20;;;19.10;78.20;;;;;;5074625;28;20487;-72
2023/07/16 04:08:44;;;;;;;1.00;1.00;;;18.90;78.30;;;;;;5074661;28;20025;-73
2023/07/16 04:11:09;;;;;;;2.95;1.35;;;18.90;79.00;;;;;;5074593;28;20024;-72
2023/07/16 04:13:35;;;;;;;2.28;1.08;;;19.00;79.10;;;;;;5074575;28;20141;-72
2023/07/16 04:16:00;;;;;;;1.85;1.52;;;19.10;79.00;;;;;;5074097;28;20036;-72
2023/07/16 04:18:26;;;;;;;4.60;1.10;;;19.10;79.10;;;;;;5074083;28;20025;-71
2023/07/16 04:20:52;;;;;;;5.13;1.02;;;19.20;78.90;;;;;;5074396;28;20127;-72
2023/07/16 04:23:18;;;;;;;1.70;1.10;;;19.20;78.40;;;;;;5074500;28;20036;-72
2023/07/16 04:25:44;;;;;;;2.20;1.30;;;19.20;78.40;;;;;;5073081;28;20518;-72
2023/07/16 04:28:10;;;;;;;2.92;1.30;;;19.20;78.60;;;;;;5074430;28;20376;-72
2023/07/16 04:30:37;;;;;;;3.75;1.20;;;19.20;78.50;;;;;;5074222;28;20017;-72
2023/07/16 04:33:03;;;;;;;3.60;1.35;;;19.20;78.30;;;;;;5074301;28;20017;-72
2023/07/16 04:35:29;;;;;;;3.58;1.27;;;19.30;77.80;;;;;;5074989;28;20112;-71
2023/07/16 04:37:54;;;;;;;3.17;1.20;;;19.20;78.00;;;;;;5076192;28;20048;-72
2023/07/16 04:40:20;;;;;;;3.72;1.55;;;19.10;77.90;;;;;;5074314;28;20484;-71
2023/07/16 04:42:45;;;;;;;1.10;1.10;;;19.20;78.30;;;;;;5074200;28;20021;-72
2023/07/16 04:45:11;;;;;;;1.10;1.00;;;19.20;78.20;;;;;;5073960;28;20082;-72
2023/07/16 04:47:37;;;;;;;2.83;1.40;;;19.10;78.00;;;;;;5074009;28;20020;-72
2023/07/16 04:50:02;;;;;;;2.17;1.17;;;19.10;78.20;;;;;;5073808;28;20025;-72
2023/07/16 04:52:28;;;;;;;2.25;1.30;;;19.10;78.50;;;;;;5073867;28;20074;-73
2023/07/16 04:54:53;;;;;;;1.60;1.20;;;19.20;78.50;;;;;;5073731;28;20028;-73
2023/07/16 04:57:19;;;;;;;3.33;1.45;;;19.30;78.20;;;;;;5073673;28;20029;-73
2023/07/16 04:59:44;;;;;;;1.33;1.15;;;19.50;78.00;;;;;;5073503;28;20028;-72
2023/07/16 05:02:10;;;;;;;1.90;1.10;;;19.50;77.80;;;;;;5073560;28;20476;-71
2023/07/16 05:04:35;;;;;;;4.50;1.30;;;19.60;77.70;;;;;;5073641;28;20058;-72
2023/07/16 05:07:04;;;;;;;1.30;1.10;;;19.60;77.70;;;;;;5073841;28;20369;-72
2023/07/16 05:09:30;;;;;;;1.90;1.23;;;19.70;77.80;;;;;;5073524;28;20564;-74
2023/07/16 05:11:55;;;;;;;1.73;1.25;;;19.70;77.60;;;;;;5073500;28;20028;-72
2023/07/16 05:14:21;;;;;;;2.05;1.30;;;19.70;77.50;;;;;;5073359;28;20036;-73
2023/07/16 05:16:46;;;;;;;2.03;1.20;;;19.70;77.90;;;;;;5073370;28;20075;-73
2023/07/16 05:19:12;;;;;;;2.80;1.58;;;19.70;77.20;;;;;;5073395;28;20024;-72
2023/07/16 05:21:37;;;;;;;1.83;1.17;;;19.80;76.20;;;;;;5073231;28;20079;-72
2023/07/16 05:24:04;;;;;;;2.47;1.48;;;19.90;75.10;;;;;;5071252;28;20028;-72
2023/07/16 05:26:29;;;;;;;7.47;1.60;;;19.80;70.80;;;;;;5073465;28;20028;-72
2023/07/16 05:28:55;;;;;;;3.92;1.50;;;19.60;71.10;;;;;;5073300;28;20020;-72
2023/07/16 05:31:20;;;;;;;3.63;1.67;;;19.50;71.50;;;;;;5073249;28;20020;-72
2023/07/16 05:33:46;;;;;;;2.08;1.40;;;19.40;72.40;;;;;;5072946;28;20028;-71
2023/07/16 05:36:12;;;;;;;1.98;1.20;;;19.50;72.50;;;;;;5073184;28;20035;-71
2023/07/16 05:38:37;;;;;;;5.55;1.55;;;19.60;72.30;;;;;;5073154;28;20354;-72
2023/07/16 05:41:04;;;;;;;2.40;1.65;;;19.60;70.90;;;;;;5076099;28;20028;-73
2023/07/16 05:43:29;;;;;;;4.25;1.58;;;19.50;73.40;;;;;;5073093;28;20017;-71
2023/07/16 05:45:55;;;;;;;1.73;1.40;;;19.60;71.50;;;;;;5072830;28;20025;-71
2023/07/16 05:48:20;;;;;;;2.10;1.30;;;19.60;71.20;;;;;;5072833;28;20060;-72
2023/07/16 05:50:46;;;;;;;3.55;1.60;;;19.60;69.00;;;;;;5073004;28;20476;-72
2023/07/16 05:53:13;;;;;;;2.47;1.55;;;19.60;69.30;;;;;;5071686;28;20024;-71
2023/07/16 05:55:40;;;;;;;2.42;1.73;;;19.30;64.50;;;;;;5073002;28;20028;-71
2023/07/16 05:58:05;;;;;;;3.10;1.30;;;19.10;65.70;;;;;;5072894;28;20021;-71
2023/07/16 06:00:31;;;;;;;4.72;1.25;;;19.00;66.30;;;;;;5072951;28;20043;-71
2023/07/16 06:02:57;;;;;;;2.85;1.75;;;18.90;67.30;;;;;;5072778;28;20028;-71
2023/07/16 06:05:24;;;;;;;5.60;1.48;;;19.00;68.20;;;;;;5072810;28;20354;-72
2023/07/16 06:07:49;;;;;;;2.88;1.60;;;19.00;68.20;;;;;;5072986;28;20052;-72
2023/07/16 06:10:15;;;;;;;3.20;1.80;;;18.90;68.40;;;;;;5073116;28;20110;-71
2023/07/16 06:12:41;;;;;;;3.08;1.25;;;18.70;69.90;;;;;;5072795;28;20028;-71
2023/07/16 06:15:07;;;;;;;4.28;1.73;;;18.70;71.40;;;;;;5072750;28;20029;-72
2023/07/16 06:17:32;;;;;;;3.03;1.40;;;18.80;72.70;;;;;;5072623;28;20020;-72
2023/07/16 06:19:58;;;;;;;3.35;1.77;;;19.00;72.90;;;;;;5072614;28;20024;-72
2023/07/16 06:22:23;;;;;;;4.80;1.70;;;19.10;68.50;;;;;;5072506;28;20024;-72
2023/07/16 06:24:49;;;;;;;2.50;1.77;;;19.00;68.30;;;;;;5072655;28;20108;-71
2023/07/16 06:27:14;;;;;;;2.65;1.45;;;19.10;66.10;;;;;;5072586;28;20056;-71
2023/07/16 06:29:40;;;;;;;4.43;1.80;;;19.10;66.70;;;;;;5072570;28;20032;-71
2023/07/16 06:32:06;;;;;;;2.60;1.60;;;19.20;68.00;;;;;;5071350;28;20017;-72
2023/07/16 06:34:32;;;;;;;11.35;2.75;;;19.50;67.90;;;;;;5072294;28;20040;-71
2023/07/16 06:36:57;;;;;;;4.93;1.92;;;19.60;68.80;;;;;;5076297;28;20025;-71
2023/07/16 06:39:23;;;;;;;7.15;1.90;;;19.90;67.90;;;;;;5075223;28;20028;-72
2023/07/16 06:41:49;;;;;;;4.35;1.80;;;19.90;67.80;;;;;;5076178;28;20025;-74
2023/07/16 06:44:15;;;;;;;2.83;1.60;;;19.90;63.80;;;;;;5076331;28;20025;-72
2023/07/16 06:46:41;;;;;;;5.53;1.92;;;19.80;65.10;;;;;;5076238;28;20032;-74
2023/07/16 06:49:07;;;;;;;4.97;1.83;;;19.70;64.00;;;;;;5091655;28;20025;-74
2023/07/16 06:51:33;;;;;;;4.82;2.15;;;19.70;64.90;;;;;;5075929;28;20474;-74
2023/07/16 06:53:59;;;;;;;4.47;1.45;;;19.60;65.70;;;;;;5075808;28;20067;-72
2023/07/16 06:56:25;;;;;;;2.67;1.70;;;19.60;63.90;;;;;;5076189;28;20488;-72
2023/07/16 06:58:50;;;;;;;6.32;2.40;;;20.00;62.90;;;;;;5076108;28;20039;-71
2023/07/16 07:01:16;;;;;;;7.07;2.05;;;20.30;61.40;;;;;;5075864;28;20029;-73
2023/07/16 07:03:41;;;;;;;3.72;1.70;;;20.40;61.50;;;;;;5076101;28;20032;-73
2023/07/16 07:06:10;;;;;;;3.63;1.67;;;20.40;59.30;;;;;;5075978;28;20027;-72
2023/07/16 07:08:36;;;;;;;4.32;1.67;;;20.20;60.80;;;;;;5078667;28;20024;-72
2023/07/16 07:11:01;;;;;;;4.10;1.88;;;19.80;61.40;;;;;;5076445;28;20025;-73
2023/07/16 07:13:29;;;;;;;4.15;1.75;;;19.50;62.50;;;;;;5075742;28;20025;-72
2023/07/16 07:15:55;;;;;;;3.35;1.40;;;19.50;62.20;;;;;;5075876;28;20047;-72
2023/07/16 07:18:20;;;;;;;4.28;2.00;;;19.60;61.80;;;;;;5075579;28;20461;-73
2023/07/16 07:20:47;;;;;;;5.05;1.98;;;19.60;63.30;;;;;;5075518;28;20500;-72
2023/07/16 07:23:15;;;;;;;4.75;1.73;;;19.70;62.40;;;;;;5075939;28;20049;-72
2023/07/16 07:25:41;;;;;;;5.22;1.90;;;19.70;62.30;;;;;;5075324;28;20029;-72
2023/07/16 07:28:07;;;;;;;5.15;2.00;;;19.80;61.50;;;;;;5075632;28;20530;-74
2023/07/16 07:30:32;;;;;;;4.15;1.92;;;20.00;60.50;;;;;;5075488;28;20457;-73
2023/07/16 07:32:58;;;;;;;7.13;2.45;;;19.70;60.50;;;;;;5075494;28;20039;-74
2023/07/16 07:35:24;;;;;;;5.07;2.20;;;19.80;62.10;;;;;;5075637;28;20039;-74
2023/07/16 07:37:49;;;;;;;6.15;2.30;;;20.00;61.70;;;;;;5075419;28;20021;-74
2023/07/16 07:40:15;;;;;;;4.88;1.95;;;20.00;60.60;;;;;;5075315;28;20070;-74
2023/07/16 07:42:40;;;;;;;4.65;1.98;;;20.00;61.70;;;;;;5075416;28;20035;-73
2023/07/16 07:45:06;;;;;;;4.63;2.05;;;19.90;59.90;;;;;;5073968;28;20491;-73
2023/07/16 07:47:32;;;;;;;5.13;1.73;;;19.70;59.90;;;;;;5074236;28;20020;-74
2023/07/16 07:49:57;;;;;;;5.75;2.00;;;19.60;60.10;;;;;;5075215;28;20032;-74
2023/07/16 07:52:23;;;;;;;4.80;2.00;;;19.50;61.10;;;;;;5075244;28;20099;-73
2023/07/16 07:54:48;;;;;;;5.35;2.03;;;19.60;62.10;;;;;;5075102;28;20036;-75
2023/07/16 07:57:14;;;;;;;5.45;2.05;;;19.80;60.20;;;;;;5075234;28;20016;-75
2023/07/16 07:59:40;;;;;;;5.40;1.80;;;19.90;61.10;;;;;;5074959;28;20039;-76
2023/07/16 08:02:06;;;;;;;5.72;1.80;;;19.90;59.80;;;;;;5075049;28;20025;-76
2023/07/16 08:04:34;;;;;;;5.63;2.10;;;19.90;59.60;;;;;;5074880;28;20028;-73
2023/07/16 08:07:00;;;;;;;4.43;1.80;;;19.90;59.40;;;;;;5074987;28;20464;-74
2023/07/16 08:09:27;;;;;;;4.90;1.83;;;20.20;58.90;;;;;;5074903;28;20112;-75
2023/07/16 08:11:52;;;;;;;4.53;1.73;;;20.10;58.70;;;;;;5075061;28;20374;-76
2023/07/16 08:14:18;;;;;;;3.05;1.70;;;20.00;59.80;;;;;;5074676;28;20029;-76
2023/07/16 08:16:43;;;;;;;7.82;1.90;;;20.20;59.20;;;;;;5074803;28;20032;-76
2023/07/16 08:19:09;;;;;;;5.82;2.45;;;20.20;59.50;;;;;;5074782;28;20108;-74
2023/07/16 08:21:37;;;;;;;6.10;2.20;;;20.50;59.60;;;;;;5074904;28;20465;-72
2023/07/16 08:24:04;;;;;;;12.07;3.05;;;20.60;57.20;;;;;;5074646;28;20047;-72
2023/07/16 08:26:30;;;;;;;10.27;3.75;;;20.70;58.90;;;;;;5079472;28;20035;-73
2023/07/16 08:28:56;;;;;;;5.22;1.95;;;20.90;57.20;;;;;;5073341;28;20017;-73
2023/07/16 08:31:21;;;;;;;6.78;2.25;;;20.90;57.70;;;;;;5074323;28;20050;-72
2023/07/16 08:33:47;;;;;;;8.18;2.20;;;21.10;56.10;;;;;;5074614;28;20031;-72
2023/07/16 08:36:12;;;;;;;3.90;2.08;;;21.00;56.00;;;;;;5074482;28;20087;-72
2023/07/16 08:38:38;;;;;;;5.18;1.83;;;21.10;55.40;;;;;;5074364;28;20078;-73
2023/07/16 08:41:03;;;;;;;6.25;2.00;;;21.00;56.30;;;;;;5074257;28;20035;-75
2023/07/16 08:43:29;;;;;;;3.92;1.80;;;20.90;56.00;;;;;;5074300;28;20029;-73
2023/07/16 08:45:55;;;;;;;4.68;1.83;;;20.70;55.60;;;;;;5074510;28;20025;-73
2023/07/16 08:48:22;;;;;;;4.97;2.13;;;20.80;55.50;;;;;;5074151;28;20059;-73
2023/07/16 08:50:48;;;;;;;3.55;1.92;;;20.80;56.30;;;;;;5074045;28;20060;-72
2023/07/16 08:53:16;;;;;;;6.35;2.33;;;20.90;55.60;;;;;;5074136;28;20029;-72
2023/07/16 08:55:45;;;;;;;6.35;2.08;;;21.20;55.40;;;;;;5073691;28;20041;-72
2023/07/16 08:58:14;;;;;;;4.72;1.90;;;21.40;53.80;;;;;;5073727;28;20077;-71
2023/07/16 09:00:43;;;;;;;5.40;2.20;;;21.60;55.30;;;;;;5072741;28;20021;-73
2023/07/16 09:03:11;;;;;;;2.45;1.83;;;21.60;54.30;;;;;;5073944;28;20024;-72
2023/07/16 09:05:36;;;;;;;3.83;1.90;;;21.50;54.70;;;;;;5073898;28;20049;-72
2023/07/16 09:08:02;;;;;;;4.53;1.75;;;21.60;52.30;;;;;;5073860;28;20020;-71
2023/07/16 09:10:29;;;;;;;7.22;2.35;;;21.40;53.90;;;;;;5073671;28;20059;-75
2023/07/16 09:12:59;;;;;;;5.82;1.90;;;21.30;53.30;;;;;;5073949;28;20388;-76
2023/07/16 09:15:26;;;;;;;4.15;1.65;;;21.30;54.90;;;;;;5073653;28;20125;-74
2023/07/16 09:17:54;;;;;;;5.10;2.28;;;21.40;54.20;;;;;;5073623;28;20056;-73
2023/07/16 09:20:20;;;;;;;5.57;2.13;;;21.30;53.70;;;;;;5073363;28;20115;-74
2023/07/16 09:22:47;;;;;;;4.43;2.00;;;21.10;54.20;;;;;;5072025;28;20056;-73
2023/07/16 09:25:13;;;;;;;4.07;2.00;;;21.20;54.00;;;;;;5073351;28;20029;-74
2023/07/16 09:27:38;;;;;;;4.13;2.15;;;21.20;53.20;;;;;;5073269;28;20027;-76
2023/07/16 09:30:05;;;;;;;4.68;1.90;;;21.30;53.40;;;;;;5073314;28;20032;-75
2023/07/16 09:32:41;;;;;;;5.95;1.92;;;21.50;52.70;;;;;;5073296;28;20032;-76
2023/07/16 09:35:15;;;;;;;4.13;2.10;;;21.60;51.10;;;;;;5073112;28;20037;-76
2023/07/16 09:37:40;;;;;;;2.65;1.73;;;21.70;51.30;;;;;;5073151;28;20023;-76
2023/07/16 09:40:09;;;;;;;3.80;1.58;;;22.00;49.20;;;;;;5073522;28;20029;-76
2023/07/16 09:42:40;;;;;;;5.85;1.73;;;22.20;48.10;;;;;;5073326;28;20028;-77
2023/07/16 09:45:26;;;;;;;5.60;1.98;;;22.50;48.70;;;;;;5074534;28;20031;-76
2023/07/16 09:47:52;;;;;;;5.55;2.08;;;22.60;48.80;;;;;;5072421;28;20063;-75
2023/07/16 09:50:18;;;;;;;4.90;1.70;;;22.60;48.50;;;;;;5073016;28;20425;-74
2023/07/16 09:52:44;;;;;;;6.55;2.08;;;22.70;47.70;;;;;;5072939;28;20025;-74
2023/07/16 09:55:10;;;;;;;3.72;2.03;;;22.70;48.20;;;;;;5071588;28;20306;-75
2023/07/16 09:57:38;;;;;;;3.97;2.10;;;22.70;48.40;;;;;;5075026;28;20023;-75
2023/07/16 10:00:12;;;;;;;4.82;2.13;;;22.60;50.10;;;;;;5073817;28;20459;-76
2023/07/16 10:02:38;;;;;;;3.40;2.00;;;22.60;50.70;;;;;;5073684;28;20025;-75
2023/07/16 10:05:24;;;;;;;3.65;1.95;;;22.60;49.90;;;;;;5072976;28;20025;-74
2023/07/16 10:07:59;;;;;;;5.80;2.00;;;22.70;49.00;;;;;;5072825;28;20028;-75
2023/07/16 10:10:42;;;;;;;7.10;1.80;;;23.00;48.00;;;;;;5072341;28;20017;-76
2023/07/16 10:13:11;;;;;;;4.25;1.75;;;23.20;48.80;;;;;;5072905;28;20456;-75
2023/07/16 10:15:36;;;;;;;5.47;1.80;;;23.00;47.20;;;;;;5072609;28;20548;-72
2023/07/16 10:18:02;;;;;;;4.55;1.58;;;22.80;48.40;;;;;;5072549;28;20033;-72
2023/07/16 10:20:36;;;;;;;4.05;2.00;;;22.70;48.60;;;;;;5088006;28;20040;-72
2023/07/16 10:23:18;;;;;;;2.70;1.50;;;22.90;46.80;;;;;;5072776;28;20029;-72
2023/07/16 10:26:08;;;;;;;3.30;1.77;;;23.10;46.20;;;;;;5072656;28;20437;-72
2023/07/16 10:28:35;;;;;;;4.22;2.05;;;23.20;45.30;;;;;;5072582;28;20048;-72
2023/07/16 10:31:00;;;;;;;2.60;1.60;;;23.30;46.60;;;;;;5071537;28;20020;-76
2023/07/16 10:33:26;;;;;;;2.88;1.50;;;23.40;46.20;;;;;;5072770;28;20028;-72
2023/07/16 10:35:52;;;;;;;4.97;1.90;;;23.70;45.40;;;;;;5072432;28;20033;-74
2023/07/16 10:38:17;;;;;;;5.03;2.00;;;23.90;45.40;;;;;;5072489;28;20055;-72
2023/07/16 10:40:44;;;;;;;3.17;1.60;;;23.90;45.00;;;;;;5072473;28;20032;-75
2023/07/16 10:43:10;;;;;;;5.85;1.77;;;23.90;43.80;;;;;;5072438;28;20082;-75
2023/07/16 10:45:36;;;;;;;4.93;1.60;;;23.60;44.90;;;;;;5072589;28;20020;-75
2023/07/16 10:48:02;;;;;;;4.32;1.85;;;23.60;44.80;;;;;;5072412;28;20043;-73
2023/07/16 10:50:28;;;;;;;5.13;1.88;;;23.80;44.80;;;;;;5072383;28;20017;-72
2023/07/16 10:52:56;;;;;;;2.88;1.70;;;23.80;45.00;;;;;;5072314;28;20055;-72
2023/07/16 10:55:23;;;;;;;3.70;1.80;;;24.00;46.20;;;;;;5072345;28;20149;-72
2023/07/16 10:57:49;;;;;;;4.13;2.45;;;24.40;44.60;;;;;;5072306;28;20099;-72
2023/07/16 11:00:16;;;;;;;2.97;1.60;;;24.40;44.40;;;;;;5072265;28;20538;-72
2023/07/16 11:02:43;;;;;;;4.22;1.70;;;24.40;43.20;;;;;;5072237;28;20031;-72
2023/07/16 11:05:13;;;;;;;2.78;1.73;;;24.50;43.40;;;;;;5072279;28;20036;-72
2023/07/16 11:07:43;;;;;;;3.33;1.58;;;24.50;43.00;;;;;;5072204;28;20031;-75
2023/07/16 11:10:09;;;;;;;4.43;1.67;;;24.50;43.70;;;;;;5072350;28;20016;-75
2023/07/16 11:12:34;;;;;;;5.65;1.80;;;24.30;45.00;;;;;;5072589;28;20338;-74
2023/07/16 11:15:00;;;;;;;4.10;2.10;;;24.50;46.70;;;;;;5072071;28;20090;-72
2023/07/16 11:17:25;;;;;;;3.83;1.70;;;24.80;45.60;;;;;;5071980;28;20376;-73
2023/07/16 11:19:52;;;;;;;2.55;1.42;;;25.20;43.40;;;;;;5071934;28;20028;-73
2023/07/16 11:22:19;;;;;;;2.72;1.48;;;25.60;43.00;;;;;;5073214;28;20506;-76
2023/07/16 11:24:46;;;;;;;3.03;1.75;;;25.80;42.80;;;;;;5075805;28;20086;-75
2023/07/16 11:27:21;;;;;;;3.03;1.52;;;25.80;41.90;;;;;;5075633;28;20016;-76
2023/07/16 11:29:53;;;;;;;4.38;2.10;;;25.80;40.30;;;;;;5075473;28;20020;-73
2023/07/16 11:32:33;;;;;;;4.25;1.83;;;25.80;40.50;;;;;;5075408;28;20099;-75
2023/07/16 11:35:00;;;;;;;3.40;1.95;;;26.00;42.30;;;;;;5075325;28;20055;-72
2023/07/16 11:37:29;;;;;;;5.38;1.80;;;26.50;42.00;;;;;;5075281;28;20386;-73
2023/07/16 11:39:57;;;;;;;5.05;1.92;;;26.80;40.00;;;;;;5075203;28;20104;-72
2023/07/16 11:42:30;;;;;;;2.78;1.42;;;26.90;39.30;;;;;;5075258;28;20043;-72
2023/07/16 11:44:57;;;;;;;4.55;1.95;;;26.60;39.40;;;;;;5075177;28;20048;-72
2023/07/16 11:47:22;;;;;;;6.10;1.77;;;25.90;38.90;;;;;;5075156;28;20510;-72
2023/07/16 11:49:51;;;;;;;4.32;1.60;;;25.70;41.50;;;;;;5075110;28;20056;-72
2023/07/16 11:52:25;;;;;;;3.38;1.88;;;26.10;40.80;;;;;;5075035;28;20025;-72
2023/07/16 11:54:59;;;;;;;3.15;1.52;;;26.10;39.70;;;;;;5074840;28;20098;-73
2023/07/16 11:57:25;;;;;;;2.88;1.60;;;26.10;38.90;;;;;;5074946;28;20372;-73
2023/07/16 11:59:50;;;;;;;6.55;1.90;;;26.40;39.20;;;;;;5074925;28;20013;-73
2023/07/16 12:02:16;;;;;;;4.20;1.80;;;26.70;40.20;;;;;;5074879;28;20028;-74
2023/07/16 12:04:42;;;;;;;5.38;2.00;;;26.60;38.90;;;;;;5074804;28;20021;-73
2023/07/16 12:07:07;;;;;;;4.47;1.90;;;26.80;38.50;;;;;;5074785;28;20533;-73
2023/07/16 12:09:33;;;;;;;3.03;1.55;;;26.90;37.60;;;;;;5074639;28;20085;-72
2023/07/16 12:11:59;;;;;;;5.50;1.60;;;27.10;36.60;;;;;;5074693;28;20028;-71
2023/07/16 12:14:25;;;;;;;6.45;2.00;;;27.10;38.10;;;;;;5074456;28;20031;-73
2023/07/16 12:16:51;;;;;;;4.03;1.80;;;27.30;37.10;;;;;;5074670;28;20130;-72
2023/07/16 12:19:16;;;;;;;4.70;1.83;;;27.00;39.20;;;;;;5089983;28;20024;-72
2023/07/16 12:21:42;;;;;;;7.22;2.55;;;27.00;37.10;;;;;;5074334;28;20074;-72
2023/07/16 12:24:07;;;;;;;5.60;2.25;;;27.40;38.70;;;;;;5074339;28;20081;-73
2023/07/16 12:26:33;;;;;;;3.63;1.95;;;27.00;37.20;;;;;;5074267;28;20096;-71
2023/07/16 12:28:59;;;;;;;4.07;1.85;;;26.90;37.80;;;;;;5074228;28;20032;-72
2023/07/16 12:31:24;;;;;;;3.05;1.67;;;27.50;37.70;;;;;;5074123;28;20051;-71
2023/07/16 12:33:50;;;;;;;3.72;1.42;;;27.50;37.20;;;;;;5073414;28;20056;-72
2023/07/16 12:36:16;;;;;;;5.40;1.70;;;27.50;38.30;;;;;;5074037;28;20031;-71
2023/07/16 12:38:41;;;;;;;5.15;1.60;;;27.80;36.80;;;;;;5072617;28;20056;-72
2023/07/16 12:41:07;;;;;;;2.50;1.40;;;28.10;36.90;;;;;;5074015;28;20028;-73
2023/07/16 12:43:34;;;;;;;5.63;2.00;;;28.30;36.70;;;;;;5074000;28;20496;-74